createdAt,value
2016-11-17T00:00:36.743Z,918.41
2016-11-17T00:01:49.751Z,918.45
2016-11-17T00:03:02.288Z,918.43
2016-11-17T00:04:13.777Z,918.4
2016-11-17T00:05:25.758Z,918.37
2016-11-17T00:06:38.806Z,918.34
2016-11-17T00:07:51.256Z,918.35
2016-11-17T00:09:03.217Z,918.34
2016-11-17T00:10:16.255Z,918.4
2016-11-17T00:11:29.412Z,918.47
2016-11-17T00:12:41.854Z,918.48
2016-11-17T00:13:54.949Z,918.56
2016-11-17T00:15:06.884Z,918.57
2016-11-17T00:16:19.938Z,918.57
2016-11-17T00:17:33.006Z,918.53
2016-11-17T00:18:45.502Z,918.51
2016-11-17T00:19:58.074Z,918.53
2016-11-17T00:21:10.120Z,918.51
2016-11-17T00:22:23.720Z,918.6
2016-11-17T00:23:36.891Z,918.64
2016-11-17T00:24:50.407Z,918.67
2016-11-17T00:26:02.947Z,918.59
2016-11-17T00:27:16.197Z,918.66
2016-11-17T00:28:29.213Z,918.7
2016-11-17T00:29:41.805Z,918.74
2016-11-17T00:30:54.339Z,918.75
2016-11-17T00:32:07.919Z,918.71
2016-11-17T00:33:19.993Z,918.65
2016-11-17T00:34:33.166Z,918.66
2016-11-17T00:35:45.629Z,918.62
2016-11-17T00:36:57.626Z,918.65
2016-11-17T00:38:10.189Z,918.64
2016-11-17T00:39:23.227Z,918.67
2016-11-17T00:40:34.683Z,918.72
2016-11-17T00:41:47.786Z,918.74
2016-11-17T00:43:00.295Z,918.76
2016-11-17T00:44:12.783Z,918.82
2016-11-17T00:45:25.397Z,918.81
2016-11-17T00:46:38.542Z,918.84
2016-11-17T00:47:51.547Z,918.84
2016-11-17T00:49:03.553Z,918.83
2016-11-17T00:50:16.106Z,918.83
2016-11-17T00:51:29.169Z,918.79
2016-11-17T00:52:41.710Z,918.8
2016-11-17T00:53:54.346Z,918.84
2016-11-17T00:55:07.936Z,918.88
2016-11-17T00:56:20.512Z,918.87
2016-11-17T00:57:33.191Z,918.93
2016-11-17T00:58:45.689Z,918.91
2016-11-17T00:59:58.723Z,918.91
2016-11-17T01:01:11.766Z,918.93
2016-11-17T01:02:23.807Z,918.85
2016-11-17T01:03:35.896Z,918.79
2016-11-17T01:04:48.481Z,918.72
2016-11-17T01:06:00.991Z,918.65
2016-11-17T01:07:14.058Z,918.64
2016-11-17T01:08:27.625Z,918.63
2016-11-17T01:09:39.613Z,918.66
2016-11-17T01:10:53.224Z,918.62
2016-11-17T01:12:06.841Z,918.6
2016-11-17T01:13:20.372Z,918.58
2016-11-17T01:14:32.839Z,918.59
2016-11-17T01:15:45.379Z,918.6
2016-11-17T01:16:58.435Z,918.55
2016-11-17T01:18:11.515Z,918.58
2016-11-17T01:19:25.056Z,918.61
2016-11-17T01:20:37.530Z,918.71
2016-11-17T01:21:51.198Z,918.7
2016-11-17T01:23:03.742Z,918.73
2016-11-17T01:24:16.871Z,918.71
2016-11-17T01:25:29.948Z,918.75
2016-11-17T01:26:42.586Z,918.73
2016-11-17T01:27:55.636Z,918.76
2016-11-17T01:29:09.247Z,918.78
2016-11-17T01:30:22.337Z,918.74
2016-11-17T01:31:34.377Z,918.73
2016-11-17T01:32:46.890Z,918.74
2016-11-17T01:34:00.531Z,918.73
2016-11-17T01:35:14.216Z,918.74
2016-11-17T01:36:27.969Z,918.8
2016-11-17T01:37:41.098Z,918.86
2016-11-17T01:38:53.599Z,918.9
2016-11-17T01:40:05.552Z,918.97
2016-11-17T01:41:18.075Z,919.03
2016-11-17T01:44:16.314Z,919.28
2016-11-17T01:45:28.819Z,919.42
2016-11-17T01:46:41.896Z,919.54
2016-11-17T01:47:54.403Z,919.65
2016-11-17T01:49:07.955Z,919.7
2016-11-17T01:50:21.014Z,919.71
2016-11-17T01:51:33.985Z,919.72
2016-11-17T01:52:47.503Z,919.74
2016-11-17T01:54:00.442Z,919.82
2016-11-17T01:55:13.496Z,919.97
2016-11-17T01:56:26.543Z,920.15
2016-11-17T01:57:40.107Z,920.15
2016-11-17T01:58:53.130Z,920.16
2016-11-17T02:00:06.187Z,920.2
2016-11-17T02:01:18.751Z,920.15
2016-11-17T02:02:31.802Z,920.05
2016-11-17T02:03:44.280Z,920.04
2016-11-17T02:04:57.816Z,920
2016-11-17T02:06:09.707Z,920.08
2016-11-17T02:07:22.214Z,920.16
2016-11-17T02:08:35.325Z,920.13
2016-11-17T02:09:47.782Z,920.07
2016-11-17T02:11:00.852Z,919.96
2016-11-17T02:12:12.854Z,919.84
2016-11-17T02:13:24.810Z,919.68
2016-11-17T02:14:37.885Z,919.52
2016-11-17T02:15:50.948Z,919.42
2016-11-17T02:17:03.963Z,919.3
2016-11-17T02:18:17.014Z,919.27
2016-11-17T02:19:30.644Z,919.21
2016-11-17T02:20:42.652Z,919.16
2016-11-17T02:21:56.264Z,919.14
2016-11-17T02:23:09.840Z,919.08
2016-11-17T02:24:21.824Z,919.09
2016-11-17T02:25:34.852Z,919.08
2016-11-17T02:26:46.806Z,919.07
2016-11-17T02:28:00.323Z,919.12
2016-11-17T02:29:12.843Z,919.06
2016-11-17T02:30:25.838Z,919.05
2016-11-17T02:31:37.853Z,919.04
2016-11-17T02:32:49.837Z,919.01
2016-11-17T02:34:02.384Z,919.07
2016-11-17T02:35:14.324Z,919.08
2016-11-17T02:36:26.243Z,919.11
2016-11-17T02:37:39.285Z,919.07
2016-11-17T02:38:52.349Z,919.04
2016-11-17T02:40:04.316Z,918.98
2016-11-17T02:41:17.303Z,918.96
2016-11-17T02:42:30.328Z,918.98
2016-11-17T02:43:43.937Z,918.95
2016-11-17T02:44:56.470Z,919
2016-11-17T02:46:08.414Z,919
2016-11-17T02:47:21.380Z,919.01
2016-11-17T02:48:34.951Z,918.98
2016-11-17T02:49:48.544Z,919.03
2016-11-17T02:51:01.635Z,919
2016-11-17T02:52:14.158Z,919.02
2016-11-17T02:53:27.258Z,919.03
2016-11-17T02:54:39.187Z,919.04
2016-11-17T02:55:51.708Z,919.04
2016-11-17T02:57:03.651Z,919.01
2016-11-17T02:58:16.694Z,918.99
2016-11-17T02:59:30.298Z,918.99
2016-11-17T03:00:43.391Z,919.02
2016-11-17T03:01:55.878Z,919.06
2016-11-17T03:03:07.935Z,919.08
2016-11-17T03:04:20.984Z,919.16
2016-11-17T03:05:32.939Z,919.19
2016-11-17T03:06:44.943Z,919.19
2016-11-17T03:07:57.998Z,919.22
2016-11-17T03:09:11.072Z,919.24
2016-11-17T03:10:24.057Z,919.23
2016-11-17T03:11:36.041Z,919.23
2016-11-17T03:12:47.494Z,919.23
2016-11-17T03:14:01.025Z,919.23
2016-11-17T03:15:13.572Z,919.23
2016-11-17T03:16:27.204Z,919.23
2016-11-17T03:17:39.157Z,919.11
2016-11-17T03:18:51.159Z,919.07
2016-11-17T03:20:02.634Z,918.98
2016-11-17T03:21:14.113Z,918.92
2016-11-17T03:22:27.700Z,918.85
2016-11-17T03:23:40.263Z,918.83
2016-11-17T03:24:52.709Z,918.74
2016-11-17T03:26:05.162Z,918.74
2016-11-17T03:27:18.244Z,918.77
2016-11-17T03:28:31.221Z,918.8
2016-11-17T03:29:43.751Z,918.84
2016-11-17T03:30:56.828Z,918.88
2016-11-17T03:33:53.913Z,918.89
2016-11-17T03:35:07.503Z,918.87
2016-11-17T03:36:21.051Z,918.87
2016-11-17T03:37:34.638Z,918.86
2016-11-17T03:38:47.150Z,918.86
2016-11-17T03:40:00.190Z,918.88
2016-11-17T03:41:13.796Z,918.88
2016-11-17T03:42:26.291Z,918.84
2016-11-17T03:43:39.313Z,918.78
2016-11-17T03:45:23.452Z,918.7
2016-11-17T03:46:36.556Z,918.69
2016-11-17T03:47:49.580Z,918.71
2016-11-17T03:49:03.180Z,918.69
2016-11-17T03:50:15.701Z,918.72
2016-11-17T03:51:27.161Z,918.79
2016-11-17T03:52:39.142Z,918.79
2016-11-17T03:53:51.121Z,918.72
2016-11-17T03:55:04.803Z,918.69
2016-11-17T03:56:18.411Z,918.63
2016-11-17T03:57:32.030Z,918.62
2016-11-17T03:58:44.001Z,918.64
2016-11-17T03:59:56.541Z,918.7
2016-11-17T04:01:08.969Z,918.75
2016-11-17T04:02:22.088Z,918.75
2016-11-17T04:03:35.139Z,918.67
2016-11-17T04:04:47.130Z,918.62
2016-11-17T04:06:00.730Z,918.58
2016-11-17T04:07:14.300Z,918.57
2016-11-17T04:08:26.865Z,918.59
2016-11-17T04:09:39.971Z,918.62
2016-11-17T04:10:52.452Z,918.65
2016-11-17T04:12:05.500Z,918.67
2016-11-17T04:13:18.507Z,918.75
2016-11-17T04:14:31.623Z,918.73
2016-11-17T04:15:43.553Z,918.8
2016-11-17T04:17:27.676Z,918.86
2016-11-17T04:18:40.700Z,918.87
2016-11-17T04:19:53.750Z,918.89
2016-11-17T04:21:06.242Z,918.95
2016-11-17T04:22:18.232Z,918.95
2016-11-17T04:23:31.228Z,918.88
2016-11-17T04:24:44.319Z,918.95
2016-11-17T04:25:56.277Z,918.91
2016-11-17T04:27:09.280Z,918.94
2016-11-17T04:28:21.780Z,918.93
2016-11-17T04:29:34.892Z,918.96
2016-11-17T04:30:48.486Z,918.91
2016-11-17T04:32:01.462Z,918.89
2016-11-17T04:33:13.495Z,918.86
2016-11-17T04:34:25.987Z,918.86
2016-11-17T04:35:38.505Z,918.91
2016-11-17T04:36:51.541Z,918.91
2016-11-17T04:38:04.547Z,918.93
2016-11-17T04:39:17.646Z,918.95
2016-11-17T04:40:29.606Z,918.98
2016-11-17T04:41:43.157Z,919
2016-11-17T04:42:56.192Z,918.99
2016-11-17T04:44:08.186Z,919.05
2016-11-17T04:45:21.788Z,919.09
2016-11-17T04:46:35.387Z,919.08
2016-11-17T04:48:19.020Z,919.04
2016-11-17T04:49:32.027Z,918.99
2016-11-17T04:50:44.562Z,918.97
2016-11-17T04:51:57.553Z,918.9
2016-11-17T04:53:11.141Z,918.88
2016-11-17T04:54:22.555Z,918.86
2016-11-17T04:55:35.124Z,918.84
2016-11-17T04:56:48.124Z,918.83
2016-11-17T04:58:01.150Z,918.74
2016-11-17T04:59:13.633Z,918.75
2016-11-17T05:00:26.625Z,918.68
2016-11-17T05:01:39.703Z,918.64
2016-11-17T05:03:24.379Z,918.62
2016-11-17T05:04:37.947Z,918.58
2016-11-17T05:05:50.993Z,918.58
2016-11-17T05:07:04.551Z,918.54
2016-11-17T05:08:17.607Z,918.56
2016-11-17T05:09:30.593Z,918.51
2016-11-17T05:10:44.107Z,918.43
2016-11-17T05:11:56.638Z,918.54
2016-11-17T05:13:10.169Z,918.54
2016-11-17T05:14:22.123Z,918.55
2016-11-17T05:15:34.155Z,918.5
2016-11-17T05:16:47.228Z,918.51
2016-11-17T05:18:00.805Z,918.52
2016-11-17T05:19:44.413Z,918.51
2016-11-17T05:20:57.478Z,918.57
2016-11-17T05:22:11.069Z,918.56
2016-11-17T05:23:23.586Z,918.62
2016-11-17T05:24:36.647Z,918.59
2016-11-17T05:25:50.198Z,918.63
2016-11-17T05:27:03.252Z,918.65
2016-11-17T05:28:16.833Z,918.63
2016-11-17T05:29:29.350Z,918.64
2016-11-17T05:30:42.994Z,918.65
2016-11-17T05:31:56.058Z,918.67
2016-11-17T05:33:09.649Z,918.71
2016-11-17T05:34:23.199Z,918.72
2016-11-17T05:35:36.714Z,918.75
2016-11-17T05:36:49.763Z,918.72
2016-11-17T05:38:02.325Z,918.74
2016-11-17T05:39:15.919Z,918.74
2016-11-17T05:40:28.453Z,918.77
2016-11-17T05:41:42.045Z,918.73
2016-11-17T05:42:55.728Z,918.7
2016-11-17T05:44:08.683Z,918.66
2016-11-17T05:45:22.195Z,918.6
2016-11-17T05:46:35.797Z,918.53
2016-11-17T05:47:49.288Z,918.5
2016-11-17T05:49:02.328Z,918.51
2016-11-17T05:50:14.844Z,918.51
2016-11-17T05:51:27.868Z,918.5
2016-11-17T05:52:41.410Z,918.56
2016-11-17T05:53:54.473Z,918.58
2016-11-17T05:55:08.035Z,918.61
2016-11-17T05:56:20.537Z,918.62
2016-11-17T05:57:33.043Z,918.6
2016-11-17T05:58:46.628Z,918.59
2016-11-17T05:59:59.625Z,918.57
2016-11-17T06:01:12.080Z,918.6
2016-11-17T06:02:25.158Z,918.6
2016-11-17T06:03:38.223Z,918.6
2016-11-17T06:04:49.204Z,918.59
2016-11-17T06:06:02.813Z,918.61
2016-11-17T06:07:16.387Z,918.62
2016-11-17T06:08:28.936Z,918.61
2016-11-17T06:09:41.916Z,918.65
2016-11-17T06:10:55.408Z,918.65
2016-11-17T06:12:07.957Z,918.63
2016-11-17T06:13:20.445Z,918.64
2016-11-17T06:14:32.457Z,918.61
2016-11-17T06:15:46.082Z,918.58
2016-11-17T06:16:59.177Z,918.6
2016-11-17T06:18:12.223Z,918.61
2016-11-17T06:19:25.264Z,918.64
2016-11-17T06:20:38.268Z,918.66
2016-11-17T06:21:50.737Z,918.67
2016-11-17T06:23:03.194Z,918.73
2016-11-17T06:24:16.233Z,918.79
2016-11-17T06:25:29.787Z,918.84
2016-11-17T06:26:43.377Z,918.91
2016-11-17T06:27:56.372Z,918.9
2016-11-17T06:29:09.971Z,918.9
2016-11-17T06:30:22.041Z,918.94
2016-11-17T06:32:06.148Z,919.01
2016-11-17T06:33:19.146Z,919.1
2016-11-17T06:34:32.119Z,919.07
2016-11-17T06:35:45.182Z,919.09
2016-11-17T06:36:58.239Z,919.12
2016-11-17T06:38:11.349Z,919.11
2016-11-17T06:39:24.909Z,919.11
2016-11-17T06:40:38.504Z,919.13
2016-11-17T06:41:51.507Z,919.14
2016-11-17T06:43:04.007Z,919.17
2016-11-17T06:44:17.655Z,919.17
2016-11-17T06:45:30.695Z,919.23
2016-11-17T06:46:43.260Z,919.25
2016-11-17T06:47:56.334Z,919.26
2016-11-17T06:49:09.405Z,919.24
2016-11-17T06:50:21.877Z,919.19
2016-11-17T06:51:34.365Z,919.17
2016-11-17T06:52:46.895Z,919.1
2016-11-17T06:53:59.920Z,919.08
2016-11-17T06:55:13.547Z,919.03
2016-11-17T06:56:27.073Z,919.02
2016-11-17T06:57:40.614Z,918.98
2016-11-17T06:58:53.684Z,918.96
2016-11-17T07:00:06.647Z,918.94
2016-11-17T07:01:19.676Z,918.96
2016-11-17T07:02:32.184Z,918.91
2016-11-17T07:03:45.234Z,918.94
2016-11-17T07:04:58.297Z,919.01
2016-11-17T07:06:10.836Z,919.05
2016-11-17T07:07:23.839Z,919.07
2016-11-17T07:08:36.379Z,919.1
2016-11-17T07:09:49.980Z,919.1
2016-11-17T07:11:03.552Z,919.1
2016-11-17T07:12:16.571Z,919.1
2016-11-17T07:13:29.113Z,919.14
2016-11-17T07:14:42.632Z,919.06
2016-11-17T07:15:54.098Z,919.07
2016-11-17T07:17:07.758Z,919.08
2016-11-17T07:18:51.950Z,919.05
2016-11-17T07:20:04.957Z,919.01
2016-11-17T07:21:17.969Z,919.02
2016-11-17T07:22:29.947Z,919.03
2016-11-17T07:23:43.465Z,919.03
2016-11-17T07:24:57.111Z,919.01
2016-11-17T07:26:10.112Z,918.99
2016-11-17T07:27:22.680Z,919
2016-11-17T07:28:35.686Z,918.97
2016-11-17T07:29:49.284Z,918.9
2016-11-17T07:31:02.880Z,918.84
2016-11-17T07:32:47.601Z,918.79
2016-11-17T07:34:00.593Z,918.76
2016-11-17T07:35:12.560Z,918.73
2016-11-17T07:36:25.568Z,918.7
2016-11-17T07:37:39.169Z,918.68
2016-11-17T07:38:52.237Z,918.7
2016-11-17T07:40:05.269Z,918.68
2016-11-17T07:41:18.793Z,918.66
2016-11-17T07:42:32.320Z,918.66
2016-11-17T07:43:44.851Z,918.71
2016-11-17T07:44:57.312Z,918.74
2016-11-17T07:46:10.308Z,918.72
2016-11-17T07:47:22.288Z,918.72
2016-11-17T07:48:34.779Z,918.77
2016-11-17T07:49:48.279Z,918.8
2016-11-17T07:51:01.842Z,918.82
2016-11-17T07:52:14.295Z,918.89
2016-11-17T07:53:26.276Z,918.9
2016-11-17T07:54:38.271Z,918.9
2016-11-17T07:55:51.313Z,918.93
2016-11-17T07:57:04.330Z,918.89
2016-11-17T07:58:17.930Z,918.92
2016-11-17T07:59:30.445Z,918.95
2016-11-17T08:01:14.547Z,919.07
2016-11-17T08:02:28.156Z,919.13
2016-11-17T08:03:41.216Z,919.17
2016-11-17T08:04:54.783Z,919.23
2016-11-17T08:06:07.282Z,919.27
2016-11-17T08:07:20.271Z,919.28
2016-11-17T08:08:32.788Z,919.27
2016-11-17T08:09:45.853Z,919.27
2016-11-17T08:10:59.032Z,919.31
2016-11-17T08:12:12.115Z,919.34
2016-11-17T08:13:24.627Z,919.34
2016-11-17T08:14:38.128Z,919.4
2016-11-17T08:15:51.173Z,919.41
2016-11-17T08:17:03.666Z,919.43
2016-11-17T08:18:16.192Z,919.4
2016-11-17T08:19:29.238Z,919.41
2016-11-17T08:21:13.410Z,919.45
2016-11-17T08:22:26.818Z,919.46
2016-11-17T08:23:40.335Z,919.5
2016-11-17T08:25:25.079Z,919.53
2016-11-17T08:26:38.373Z,919.55
2016-11-17T08:27:52.011Z,919.55
2016-11-17T08:29:04.560Z,919.56
2016-11-17T08:30:18.089Z,919.54
2016-11-17T08:31:31.165Z,919.58
2016-11-17T08:32:44.769Z,919.57
2016-11-17T08:33:56.780Z,919.57
2016-11-17T08:35:09.322Z,919.55
2016-11-17T08:36:22.397Z,919.52
2016-11-17T08:37:35.442Z,919.52
2016-11-17T08:38:48.441Z,919.48
2016-11-17T08:40:01.455Z,919.47
2016-11-17T08:41:14.555Z,919.54
2016-11-17T08:42:28.125Z,919.59
2016-11-17T08:43:41.211Z,919.63
2016-11-17T08:44:54.800Z,919.64
2016-11-17T08:46:07.356Z,919.67
2016-11-17T08:47:20.382Z,919.71
2016-11-17T08:48:33.433Z,919.71
2016-11-17T08:49:46.429Z,919.77
2016-11-17T08:50:58.389Z,919.82
2016-11-17T08:52:12.055Z,919.78
2016-11-17T08:53:25.069Z,919.77
2016-11-17T08:54:38.670Z,919.81
2016-11-17T08:55:51.758Z,919.82
2016-11-17T08:57:35.411Z,919.82
2016-11-17T08:58:48.509Z,919.84
2016-11-17T09:00:00.984Z,919.86
2016-11-17T09:01:14.038Z,919.85
2016-11-17T09:02:27.617Z,919.89
2016-11-17T09:03:40.137Z,919.91
2016-11-17T09:04:52.136Z,919.89
2016-11-17T09:06:05.157Z,919.9
2016-11-17T09:07:18.803Z,919.92
2016-11-17T09:08:31.386Z,919.95
2016-11-17T09:09:44.433Z,919.95
2016-11-17T09:10:57.465Z,919.98
2016-11-17T09:12:09.961Z,920.01
2016-11-17T09:13:23.579Z,920.05
2016-11-17T09:14:36.672Z,920.05
2016-11-17T09:15:48.654Z,920.01
2016-11-17T09:17:02.257Z,920.02
2016-11-17T09:18:14.692Z,919.99
2016-11-17T09:19:28.330Z,920.05
2016-11-17T09:20:41.389Z,920.08
2016-11-17T09:21:54.896Z,920.09
2016-11-17T09:23:08.490Z,920.09
2016-11-17T09:24:21.585Z,920.09
2016-11-17T09:25:34.669Z,920.08
2016-11-17T09:26:47.789Z,920.08
2016-11-17T09:28:00.804Z,920.09
2016-11-17T09:29:14.340Z,920.12
2016-11-17T09:30:26.833Z,920.17
2016-11-17T09:31:39.283Z,920.13
2016-11-17T09:32:52.341Z,920.11
2016-11-17T09:34:05.920Z,920.14
2016-11-17T09:35:19.512Z,920.15
2016-11-17T09:36:32.536Z,920.19
2016-11-17T09:37:45.049Z,920.17
2016-11-17T09:38:56.476Z,920.14
2016-11-17T09:40:09.504Z,920.15
2016-11-17T09:41:23.010Z,920.18
2016-11-17T09:42:35.549Z,920.17
2016-11-17T09:43:49.102Z,920.18
2016-11-17T09:45:02.149Z,920.23
2016-11-17T09:46:14.642Z,920.26
2016-11-17T09:47:27.648Z,920.2
2016-11-17T09:48:40.718Z,920.23
2016-11-17T09:49:52.713Z,920.18
2016-11-17T09:51:06.321Z,920.18
2016-11-17T09:52:19.822Z,920.16
2016-11-17T09:53:32.341Z,920.16
2016-11-17T09:54:45.990Z,920.17
2016-11-17T09:55:58.004Z,920.19
2016-11-17T09:57:10.515Z,920.17
2016-11-17T09:58:24.045Z,920.28
2016-11-17T09:59:36.569Z,920.27
2016-11-17T10:00:49.059Z,920.32
2016-11-17T10:02:02.215Z,920.3
2016-11-17T10:03:14.207Z,920.32
2016-11-17T10:04:26.113Z,920.34
2016-11-17T10:05:38.662Z,920.35
2016-11-17T10:06:51.686Z,920.33
2016-11-17T10:08:03.655Z,920.35
2016-11-17T10:09:16.203Z,920.35
2016-11-17T10:10:29.258Z,920.39
2016-11-17T10:11:42.244Z,920.41
2016-11-17T10:12:54.801Z,920.41
2016-11-17T10:14:07.304Z,920.4
2016-11-17T10:15:20.366Z,920.42
2016-11-17T10:16:33.365Z,920.42
2016-11-17T10:17:45.834Z,920.43
2016-11-17T10:18:58.894Z,920.42
2016-11-17T10:20:11.890Z,920.42
2016-11-17T10:21:24.982Z,920.41
2016-11-17T10:22:37.539Z,920.4
2016-11-17T10:23:51.099Z,920.41
2016-11-17T10:25:03.653Z,920.42
2016-11-17T10:26:15.065Z,920.4
2016-11-17T10:27:27.544Z,920.46
2016-11-17T10:28:40.058Z,920.48
2016-11-17T10:29:52.611Z,920.53
2016-11-17T10:31:05.657Z,920.49
2016-11-17T10:32:18.658Z,920.55
2016-11-17T10:33:31.706Z,920.56
2016-11-17T10:34:44.153Z,920.57
2016-11-17T10:35:56.136Z,920.57
2016-11-17T10:37:09.122Z,920.58
2016-11-17T10:38:22.652Z,920.6
2016-11-17T10:39:36.190Z,920.63
2016-11-17T10:40:49.755Z,920.65
2016-11-17T10:42:02.213Z,920.64
2016-11-17T10:43:15.330Z,920.63
2016-11-17T10:44:28.334Z,920.66
2016-11-17T10:45:41.395Z,920.66
2016-11-17T10:46:53.918Z,920.65
2016-11-17T10:48:07.550Z,920.66
2016-11-17T10:49:20.582Z,920.7
2016-11-17T10:50:33.519Z,920.75
2016-11-17T10:51:45.968Z,920.77
2016-11-17T10:52:58.501Z,920.81
2016-11-17T10:54:11.544Z,920.76
2016-11-17T10:55:24.086Z,920.71
2016-11-17T10:56:37.101Z,920.7
2016-11-17T10:57:49.105Z,920.71
2016-11-17T10:59:01.632Z,920.7
2016-11-17T11:00:15.176Z,920.7
2016-11-17T11:01:28.264Z,920.73
2016-11-17T11:02:41.334Z,920.75
2016-11-17T11:03:54.852Z,920.77
2016-11-17T11:05:07.922Z,920.78
2016-11-17T11:06:21.497Z,920.78
2016-11-17T11:07:33.433Z,920.79
2016-11-17T11:08:46.526Z,920.83
2016-11-17T11:10:00.100Z,920.84
2016-11-17T11:11:13.099Z,920.86
2016-11-17T11:12:25.639Z,920.89
2016-11-17T11:13:38.146Z,920.96
2016-11-17T11:14:50.154Z,920.96
2016-11-17T11:16:03.147Z,920.93
2016-11-17T11:17:16.728Z,920.94
2016-11-17T11:18:28.687Z,920.97
2016-11-17T11:19:41.242Z,921.09
2016-11-17T11:20:54.361Z,921.19
2016-11-17T11:22:06.846Z,921.22
2016-11-17T11:23:18.865Z,921.24
2016-11-17T11:24:31.866Z,921.35
2016-11-17T11:25:44.321Z,921.3
2016-11-17T11:26:57.378Z,921.28
2016-11-17T11:28:09.338Z,921.28
2016-11-17T11:29:22.311Z,921.3
2016-11-17T11:30:35.368Z,921.28
2016-11-17T11:31:47.920Z,921.33
2016-11-17T11:33:00.947Z,921.32
2016-11-17T11:34:44.528Z,921.33
2016-11-17T11:35:57.023Z,921.34
2016-11-17T11:37:09.569Z,921.31
2016-11-17T11:38:21.565Z,921.34
2016-11-17T11:39:34.597Z,921.4
2016-11-17T11:40:47.094Z,921.45
2016-11-17T11:42:00.768Z,921.31
2016-11-17T11:43:12.800Z,921.23
2016-11-17T11:44:25.842Z,921.23
2016-11-17T11:45:38.337Z,921.41
2016-11-17T11:46:51.930Z,921.52
2016-11-17T11:48:05.607Z,921.51
2016-11-17T11:49:18.708Z,921.51
2016-11-17T11:50:31.737Z,921.49
2016-11-17T11:51:45.306Z,921.4
2016-11-17T11:52:57.835Z,921.41
2016-11-17T11:54:10.831Z,921.46
2016-11-17T11:55:23.301Z,921.42
2016-11-17T11:56:34.773Z,921.52
2016-11-17T11:57:47.288Z,921.5
2016-11-17T11:59:00.366Z,921.5
2016-11-17T12:00:44.516Z,921.5
2016-11-17T12:01:56.494Z,921.47
2016-11-17T12:03:09.570Z,921.49
2016-11-17T12:04:21.090Z,921.5
2016-11-17T12:05:34.754Z,921.5
2016-11-17T12:06:47.839Z,921.58
2016-11-17T12:08:00.317Z,921.57
2016-11-17T12:09:13.377Z,921.53
2016-11-17T12:10:26.479Z,921.52
2016-11-17T12:11:39.574Z,921.51
2016-11-17T12:12:52.085Z,921.53
2016-11-17T12:14:05.183Z,921.53
2016-11-17T12:15:18.221Z,921.5
2016-11-17T12:16:31.811Z,921.52
2016-11-17T12:17:44.369Z,921.54
2016-11-17T12:18:57.433Z,921.51
2016-11-17T12:20:10.486Z,921.55
2016-11-17T12:21:23.514Z,921.57
2016-11-17T12:22:36.073Z,921.59
2016-11-17T12:23:48.103Z,921.55
2016-11-17T12:25:01.240Z,921.53
2016-11-17T12:26:14.904Z,921.54
2016-11-17T12:27:26.911Z,921.51
2016-11-17T12:28:39.973Z,921.47
2016-11-17T12:29:52.063Z,921.47
2016-11-17T12:31:04.125Z,921.45
2016-11-17T12:32:17.148Z,921.45
2016-11-17T12:33:29.676Z,921.43
2016-11-17T12:34:41.757Z,921.43
2016-11-17T12:35:53.744Z,921.42
2016-11-17T12:37:06.757Z,921.48
2016-11-17T12:38:18.728Z,921.49
2016-11-17T12:39:31.841Z,921.49
2016-11-17T12:40:44.392Z,921.36
2016-11-17T12:41:56.425Z,921.48
2016-11-17T12:43:10.036Z,921.47
2016-11-17T12:44:21.468Z,921.46
2016-11-17T12:45:33.420Z,921.44
2016-11-17T12:46:45.929Z,921.42
2016-11-17T12:47:57.921Z,921.41
2016-11-17T12:49:10.983Z,921.39
2016-11-17T12:50:24.002Z,921.36
2016-11-17T12:51:37.609Z,921.3
2016-11-17T12:52:50.682Z,921.19
2016-11-17T12:54:03.718Z,921.31
2016-11-17T12:55:16.190Z,921.35
2016-11-17T12:56:28.116Z,921.31
2016-11-17T12:57:40.616Z,921.34
2016-11-17T12:58:53.663Z,921.36
2016-11-17T13:00:05.644Z,921.39
2016-11-17T13:01:17.135Z,921.36
2016-11-17T13:02:29.587Z,921.31
2016-11-17T13:03:41.574Z,921.33
2016-11-17T13:04:53.595Z,921.35
2016-11-17T13:06:06.746Z,921.4
2016-11-17T13:07:19.264Z,921.32
2016-11-17T13:08:31.787Z,921.33
2016-11-17T13:09:43.197Z,921.29
2016-11-17T13:10:55.693Z,921.26
2016-11-17T13:12:08.267Z,921.29
2016-11-17T13:13:20.235Z,921.28
2016-11-17T13:14:33.248Z,921.25
2016-11-17T13:15:46.367Z,921.28
2016-11-17T13:16:58.340Z,921.16
2016-11-17T13:18:10.334Z,921.17
2016-11-17T13:19:23.960Z,921.16
2016-11-17T13:20:36.485Z,921.18
2016-11-17T13:21:48.976Z,921.16
2016-11-17T13:23:01.012Z,921.18
2016-11-17T13:24:13.508Z,921.18
2016-11-17T13:25:26.066Z,921.21
2016-11-17T13:26:39.699Z,921.21
2016-11-17T13:27:51.690Z,921.19
2016-11-17T13:29:04.208Z,921.15
2016-11-17T13:30:17.320Z,921.11
2016-11-17T13:31:30.348Z,921.09
2016-11-17T13:32:43.344Z,921.05
2016-11-17T13:33:55.338Z,921.05
2016-11-17T13:35:08.383Z,921.03
2016-11-17T13:36:20.916Z,920.97
2016-11-17T13:37:34.520Z,921
2016-11-17T13:38:47.096Z,920.99
2016-11-17T13:39:59.656Z,921.02
2016-11-17T13:41:12.665Z,920.97
2016-11-17T13:42:26.363Z,920.96
2016-11-17T13:43:38.909Z,920.95
2016-11-17T13:44:50.873Z,920.87
2016-11-17T13:49:32.695Z,920.85
2016-11-17T13:50:45.785Z,920.88
2016-11-17T13:51:57.257Z,920.87
2016-11-17T13:53:10.780Z,920.89
2016-11-17T13:54:23.793Z,920.93
2016-11-17T13:55:36.805Z,920.86
2016-11-17T13:56:48.817Z,920.88
2016-11-17T13:58:02.426Z,920.8
2016-11-17T13:59:14.916Z,920.85
2016-11-17T14:00:27.422Z,920.86
2016-11-17T14:01:39.447Z,920.84
2016-11-17T14:02:52.988Z,920.83
2016-11-17T14:04:05.501Z,920.76
2016-11-17T14:05:19.022Z,920.82
2016-11-17T14:06:31.594Z,920.84
2016-11-17T14:07:44.642Z,920.85
2016-11-17T14:08:56.677Z,920.76
2016-11-17T14:10:09.766Z,920.74
2016-11-17T14:11:22.889Z,920.8
2016-11-17T14:12:35.951Z,920.72
2016-11-17T14:13:48.440Z,920.8
2016-11-17T14:15:00.911Z,920.79
2016-11-17T14:16:13.416Z,920.7
2016-11-17T14:17:56.488Z,920.67
2016-11-17T14:19:08.944Z,920.68
2016-11-17T14:20:21.452Z,920.68
2016-11-17T14:21:33.386Z,920.7
2016-11-17T14:22:45.911Z,920.7
2016-11-17T14:23:57.930Z,920.65
2016-11-17T14:25:10.490Z,920.63
2016-11-17T14:26:23.982Z,920.59
2016-11-17T14:27:37.052Z,920.55
2016-11-17T14:28:50.018Z,920.59
2016-11-17T14:30:01.977Z,920.61
2016-11-17T14:31:13.445Z,920.58
2016-11-17T14:32:25.914Z,920.59
2016-11-17T14:33:38.906Z,920.52
2016-11-17T14:34:51.388Z,920.54
2016-11-17T14:36:04.452Z,920.5
2016-11-17T14:37:17.402Z,920.47
2016-11-17T14:38:29.320Z,920.46
2016-11-17T14:39:40.787Z,920.48
2016-11-17T14:40:54.276Z,920.43
2016-11-17T14:42:06.892Z,920.46
2016-11-17T14:43:19.943Z,920.45
2016-11-17T14:44:33.035Z,920.44
2016-11-17T14:45:45.061Z,920.44
2016-11-17T14:46:57.645Z,920.46
2016-11-17T14:48:10.127Z,920.44
2016-11-17T14:49:22.613Z,920.43
2016-11-17T14:50:35.093Z,920.4
2016-11-17T14:51:47.557Z,920.36
2016-11-17T14:53:00.054Z,920.39
2016-11-17T14:54:13.069Z,920.38
2016-11-17T14:55:26.617Z,920.33
2016-11-17T14:56:39.177Z,920.36
2016-11-17T14:57:51.702Z,920.34
2016-11-17T14:59:03.673Z,920.3
2016-11-17T15:00:16.667Z,920.27
2016-11-17T15:01:29.668Z,920.32
2016-11-17T15:02:42.699Z,920.32
2016-11-17T15:03:55.730Z,920.34
2016-11-17T15:05:08.217Z,920.31
2016-11-17T15:06:21.225Z,920.23
2016-11-17T15:07:33.209Z,920.25
2016-11-17T15:08:45.154Z,920.27
2016-11-17T15:09:58.755Z,920.26
2016-11-17T15:11:10.156Z,920.25
2016-11-17T15:12:23.153Z,920.25
2016-11-17T15:13:36.174Z,920.27
2016-11-17T15:14:49.194Z,920.19
2016-11-17T15:16:02.257Z,920.22
2016-11-17T15:17:15.264Z,920.19
2016-11-17T15:18:27.761Z,920.19
2016-11-17T15:19:40.256Z,920.16
2016-11-17T15:20:52.224Z,920.13
2016-11-17T15:22:04.733Z,920.16
2016-11-17T15:23:17.772Z,920.13
2016-11-17T15:24:30.796Z,920.17
2016-11-17T15:25:43.789Z,920.18
2016-11-17T15:26:57.366Z,920.12